Tarago, Australia
Current Conditions -  °F | °C
As of 7:00 AM on Friday 19 Dec 2014 (Local Time) from YSCB Reporting Station
Clear Clear  
Wind Chill: 55°   Ceiling: Unl
Heat Index: 55°   Visibility: 6mi
Dew Point: 45°   Wind: 9mph
Humidity: 67%   Direction: 130°SE
Pressure: 29.88"   Gusts: NA
Location:  35.07°S, 149.65°E
Report Text: YSCB 182000Z AUTO 13008KT 9999 // NCD 13/07 Q1012
Loading
Personal Weather Stations






























Interactive Weather Map New forecast layout! Learn more

10-Day Weather Forecast

Advertisements
Track Severe Weather on mobile